sensor_id;sensor_type;location;lat;lon;timestamp;P1;durP1;ratioP1;P2;durP2;ratioP2
72437;SDS011;60444;43.534;-5.674;2023-04-25T00:02:21;13.27;;;5.43;;
72437;SDS011;60444;43.534;-5.674;2023-04-25T00:04:47;14.48;;;5.28;;
72437;SDS011;60444;43.534;-5.674;2023-04-25T00:07:14;10.70;;;4.93;;
72437;SDS011;60444;43.534;-5.674;2023-04-25T00:09:39;10.70;;;5.10;;
72437;SDS011;60444;43.534;-5.674;2023-04-25T00:12:05;15.90;;;5.38;;
72437;SDS011;60444;43.534;-5.674;2023-04-25T00:14:33;11.98;;;5.32;;
72437;SDS011;60444;43.534;-5.674;2023-04-25T00:16:59;13.70;;;5.15;;
72437;SDS011;60444;43.534;-5.674;2023-04-25T00:19:25;13.20;;;5.67;;
72437;SDS011;60444;43.534;-5.674;2023-04-25T00:21:53;11.45;;;5.30;;
72437;SDS011;60444;43.534;-5.674;2023-04-25T00:24:21;10.93;;;4.97;;
72437;SDS011;60444;43.534;-5.674;2023-04-25T00:26:47;13.87;;;5.53;;
72437;SDS011;60444;43.534;-5.674;2023-04-25T00:29:12;14.38;;;5.85;;
72437;SDS011;60444;43.534;-5.674;2023-04-25T00:31:38;12.23;;;5.23;;
72437;SDS011;60444;43.534;-5.674;2023-04-25T00:34:03;8.80;;;4.47;;
72437;SDS011;60444;43.534;-5.674;2023-04-25T00:36:29;12.25;;;5.13;;
72437;SDS011;60444;43.534;-5.674;2023-04-25T00:38:55;10.13;;;4.80;;
72437;SDS011;60444;43.534;-5.674;2023-04-25T00:41:21;9.80;;;3.90;;
72437;SDS011;60444;43.534;-5.674;2023-04-25T00:43:47;13.65;;;4.72;;
72437;SDS011;60444;43.534;-5.674;2023-04-25T00:46:14;12.23;;;5.32;;
72437;SDS011;60444;43.534;-5.674;2023-04-25T00:48:40;12.67;;;4.50;;
72437;SDS011;60444;43.534;-5.674;2023-04-25T00:51:05;12.87;;;5.37;;
72437;SDS011;60444;43.534;-5.674;2023-04-25T00:53:31;12.07;;;4.95;;
72437;SDS011;60444;43.534;-5.674;2023-04-25T00:55:57;10.82;;;4.13;;
72437;SDS011;60444;43.534;-5.674;2023-04-25T00:58:23;13.13;;;4.73;;
72437;SDS011;60444;43.534;-5.674;2023-04-25T01:00:49;9.85;;;4.63;;
72437;SDS011;60444;43.534;-5.674;2023-04-25T01:03:17;8.50;;;3.42;;
72437;SDS011;60444;43.534;-5.674;2023-04-25T01:05:45;10.40;;;4.93;;
72437;SDS011;60444;43.534;-5.674;2023-04-25T01:08:12;11.73;;;5.38;;
72437;SDS011;60444;43.534;-5.674;2023-04-25T01:10:38;10.07;;;4.40;;
72437;SDS011;60444;43.534;-5.674;2023-04-25T01:13:03;12.63;;;4.70;;
72437;SDS011;60444;43.534;-5.674;2023-04-25T01:15:29;12.73;;;4.18;;
72437;SDS011;60444;43.534;-5.674;2023-04-25T01:17:54;11.40;;;4.83;;
72437;SDS011;60444;43.534;-5.674;2023-04-25T01:20:20;12.93;;;4.83;;
72437;SDS011;60444;43.534;-5.674;2023-04-25T01:22:48;12.25;;;4.95;;
72437;SDS011;60444;43.534;-5.674;2023-04-25T01:25:14;11.07;;;5.25;;
72437;SDS011;60444;43.534;-5.674;2023-04-25T01:27:42;10.90;;;4.68;;
72437;SDS011;60444;43.534;-5.674;2023-04-25T01:30:07;11.83;;;5.17;;
72437;SDS011;60444;43.534;-5.674;2023-04-25T01:32:34;11.77;;;4.38;;
72437;SDS011;60444;43.534;-5.674;2023-04-25T01:35:07;10.15;;;4.60;;
72437;SDS011;60444;43.534;-5.674;2023-04-25T01:37:35;10.68;;;4.85;;
72437;SDS011;60444;43.534;-5.674;2023-04-25T01:40:04;12.77;;;5.37;;
72437;SDS011;60444;43.534;-5.674;2023-04-25T01:42:34;12.18;;;5.22;;
72437;SDS011;60444;43.534;-5.674;2023-04-25T01:45:02;12.88;;;6.22;;
72437;SDS011;60444;43.534;-5.674;2023-04-25T01:47:28;12.60;;;6.10;;
72437;SDS011;60444;43.534;-5.674;2023-04-25T01:49:54;15.53;;;6.13;;
72437;SDS011;60444;43.534;-5.674;2023-04-25T01:52:19;16.52;;;5.93;;
72437;SDS011;60444;43.534;-5.674;2023-04-25T01:54:45;13.77;;;6.07;;
72437;SDS011;60444;43.534;-5.674;2023-04-25T01:57:11;22.13;;;7.72;;
72437;SDS011;60444;43.534;-5.674;2023-04-25T01:59:37;19.13;;;7.13;;
72437;SDS011;60444;43.534;-5.674;2023-04-25T02:02:03;21.10;;;7.63;;
72437;SDS011;60444;43.534;-5.674;2023-04-25T02:04:29;17.23;;;7.30;;
72437;SDS011;60444;43.534;-5.674;2023-04-25T02:06:55;19.98;;;6.70;;
72437;SDS011;60444;43.534;-5.674;2023-04-25T02:09:21;21.00;;;6.57;;
72437;SDS011;60444;43.534;-5.674;2023-04-25T02:11:46;15.20;;;5.82;;
72437;SDS011;60444;43.534;-5.674;2023-04-25T02:14:12;19.53;;;6.47;;
72437;SDS011;60444;43.534;-5.674;2023-04-25T02:16:37;18.50;;;6.27;;
72437;SDS011;60444;43.534;-5.674;2023-04-25T02:19:04;16.65;;;6.40;;
72437;SDS011;60444;43.534;-5.674;2023-04-25T02:21:30;15.82;;;5.53;;
72437;SDS011;60444;43.534;-5.674;2023-04-25T02:23:56;16.48;;;6.47;;
72437;SDS011;60444;43.534;-5.674;2023-04-25T02:26:22;17.33;;;6.60;;
72437;SDS011;60444;43.534;-5.674;2023-04-25T02:28:49;22.45;;;7.00;;
72437;SDS011;60444;43.534;-5.674;2023-04-25T02:31:16;19.10;;;6.70;;
72437;SDS011;60444;43.534;-5.674;2023-04-25T02:33:42;14.97;;;6.07;;
72437;SDS011;60444;43.534;-5.674;2023-04-25T02:36:08;19.92;;;6.82;;
72437;SDS011;60444;43.534;-5.674;2023-04-25T02:38:33;16.57;;;6.50;;
72437;SDS011;60444;43.534;-5.674;2023-04-25T02:40:59;17.63;;;6.43;;
72437;SDS011;60444;43.534;-5.674;2023-04-25T02:43:25;17.53;;;6.83;;
72437;SDS011;60444;43.534;-5.674;2023-04-25T02:45:50;18.80;;;6.17;;
72437;SDS011;60444;43.534;-5.674;2023-04-25T02:48:16;19.00;;;6.43;;
72437;SDS011;60444;43.534;-5.674;2023-04-25T02:50:42;19.83;;;6.57;;
72437;SDS011;60444;43.534;-5.674;2023-04-25T02:53:10;9.15;;;3.83;;
72437;SDS011;60444;43.534;-5.674;2023-04-25T02:55:36;12.60;;;3.87;;
72437;SDS011;60444;43.534;-5.674;2023-04-25T02:58:01;10.27;;;4.70;;
72437;SDS011;60444;43.534;-5.674;2023-04-25T03:00:27;11.67;;;5.30;;
72437;SDS011;60444;43.534;-5.674;2023-04-25T03:02:53;7.30;;;2.95;;
72437;SDS011;60444;43.534;-5.674;2023-04-25T03:05:18;7.57;;;2.90;;
72437;SDS011;60444;43.534;-5.674;2023-04-25T03:07:45;11.55;;;4.72;;
72437;SDS011;60444;43.534;-5.674;2023-04-25T03:10:13;10.70;;;4.63;;
72437;SDS011;60444;43.534;-5.674;2023-04-25T03:12:38;10.60;;;3.75;;
72437;SDS011;60444;43.534;-5.674;2023-04-25T03:15:04;6.93;;;2.73;;
72437;SDS011;60444;43.534;-5.674;2023-04-25T03:17:30;11.27;;;4.57;;
72437;SDS011;60444;43.534;-5.674;2023-04-25T03:19:56;7.37;;;2.93;;
72437;SDS011;60444;43.534;-5.674;2023-04-25T03:22:22;12.65;;;4.03;;
72437;SDS011;60444;43.534;-5.674;2023-04-25T03:24:48;12.50;;;4.70;;
72437;SDS011;60444;43.534;-5.674;2023-04-25T03:27:14;12.60;;;4.72;;
72437;SDS011;60444;43.534;-5.674;2023-04-25T03:29:39;12.07;;;4.57;;
72437;SDS011;60444;43.534;-5.674;2023-04-25T03:32:05;9.87;;;4.10;;
72437;SDS011;60444;43.534;-5.674;2023-04-25T03:34:31;8.47;;;3.43;;
72437;SDS011;60444;43.534;-5.674;2023-04-25T03:36:56;11.63;;;4.60;;
72437;SDS011;60444;43.534;-5.674;2023-04-25T03:39:22;11.17;;;4.70;;
72437;SDS011;60444;43.534;-5.674;2023-04-25T03:41:47;8.83;;;3.80;;
72437;SDS011;60444;43.534;-5.674;2023-04-25T03:44:13;9.90;;;3.40;;
72437;SDS011;60444;43.534;-5.674;2023-04-25T03:46:39;11.55;;;4.70;;
72437;SDS011;60444;43.534;-5.674;2023-04-25T03:49:04;10.07;;;4.57;;
72437;SDS011;60444;43.534;-5.674;2023-04-25T03:51:30;9.00;;;3.50;;
72437;SDS011;60444;43.534;-5.674;2023-04-25T03:53:56;7.70;;;3.65;;
72437;SDS011;60444;43.534;-5.674;2023-04-25T03:56:21;11.50;;;4.47;;
72437;SDS011;60444;43.534;-5.674;2023-04-25T03:58:47;9.43;;;3.90;;
72437;SDS011;60444;43.534;-5.674;2023-04-25T04:01:12;10.13;;;3.70;;
72437;SDS011;60444;43.534;-5.674;2023-04-25T04:03:38;12.87;;;4.87;;
72437;SDS011;60444;43.534;-5.674;2023-04-25T04:06:03;9.50;;;4.20;;
72437;SDS011;60444;43.534;-5.674;2023-04-25T04:08:30;9.23;;;4.17;;
72437;SDS011;60444;43.534;-5.674;2023-04-25T04:10:59;9.23;;;4.05;;
72437;SDS011;60444;43.534;-5.674;2023-04-25T04:13:27;9.75;;;3.67;;
72437;SDS011;60444;43.534;-5.674;2023-04-25T04:15:54;7.47;;;3.08;;
72437;SDS011;60444;43.534;-5.674;2023-04-25T04:18:20;11.70;;;4.63;;
72437;SDS011;60444;43.534;-5.674;2023-04-25T04:20:46;8.67;;;3.57;;
72437;SDS011;60444;43.534;-5.674;2023-04-25T04:23:12;8.60;;;4.10;;
72437;SDS011;60444;43.534;-5.674;2023-04-25T04:25:37;9.27;;;4.17;;
72437;SDS011;60444;43.534;-5.674;2023-04-25T04:28:04;9.25;;;3.75;;
72437;SDS011;60444;43.534;-5.674;2023-04-25T04:30:31;11.73;;;4.30;;
72437;SDS011;60444;43.534;-5.674;2023-04-25T04:32:57;11.02;;;5.55;;
72437;SDS011;60444;43.534;-5.674;2023-04-25T04:35:23;10.07;;;3.63;;
72437;SDS011;60444;43.534;-5.674;2023-04-25T04:37:49;9.15;;;3.70;;
72437;SDS011;60444;43.534;-5.674;2023-04-25T04:40:15;8.60;;;4.10;;
72437;SDS011;60444;43.534;-5.674;2023-04-25T04:42:43;12.90;;;5.35;;
72437;SDS011;60444;43.534;-5.674;2023-04-25T04:45:13;12.30;;;5.65;;
72437;SDS011;60444;43.534;-5.674;2023-04-25T04:47:39;10.15;;;4.82;;
72437;SDS011;60444;43.534;-5.674;2023-04-25T04:50:08;11.43;;;5.30;;
72437;SDS011;60444;43.534;-5.674;2023-04-25T04:52:35;10.40;;;4.70;;
72437;SDS011;60444;43.534;-5.674;2023-04-25T04:55:02;8.40;;;4.30;;
72437;SDS011;60444;43.534;-5.674;2023-04-25T04:57:28;10.50;;;4.60;;
72437;SDS011;60444;43.534;-5.674;2023-04-25T04:59:54;11.00;;;4.57;;
72437;SDS011;60444;43.534;-5.674;2023-04-25T05:02:20;12.90;;;5.43;;
72437;SDS011;60444;43.534;-5.674;2023-04-25T05:04:46;14.30;;;5.68;;
72437;SDS011;60444;43.534;-5.674;2023-04-25T05:07:11;12.73;;;5.10;;
72437;SDS011;60444;43.534;-5.674;2023-04-25T05:09:37;10.73;;;4.72;;
72437;SDS011;60444;43.534;-5.674;2023-04-25T05:12:03;11.00;;;5.00;;
72437;SDS011;60444;43.534;-5.674;2023-04-25T05:14:28;10.60;;;4.50;;
72437;SDS011;60444;43.534;-5.674;2023-04-25T05:16:54;11.65;;;5.07;;
72437;SDS011;60444;43.534;-5.674;2023-04-25T05:19:20;11.63;;;5.67;;
72437;SDS011;60444;43.534;-5.674;2023-04-25T05:21:45;10.18;;;4.90;;
72437;SDS011;60444;43.534;-5.674;2023-04-25T05:24:11;12.37;;;5.03;;
72437;SDS011;60444;43.534;-5.674;2023-04-25T05:26:37;8.20;;;3.70;;
72437;SDS011;60444;43.534;-5.674;2023-04-25T05:29:02;7.38;;;3.33;;
72437;SDS011;60444;43.534;-5.674;2023-04-25T05:31:28;8.40;;;3.80;;
72437;SDS011;60444;43.534;-5.674;2023-04-25T05:33:54;10.13;;;4.30;;
72437;SDS011;60444;43.534;-5.674;2023-04-25T05:36:20;10.55;;;4.85;;
72437;SDS011;60444;43.534;-5.674;2023-04-25T05:38:45;10.50;;;4.30;;
72437;SDS011;60444;43.534;-5.674;2023-04-25T05:41:11;10.02;;;4.90;;
72437;SDS011;60444;43.534;-5.674;2023-04-25T05:43:36;11.40;;;5.73;;
72437;SDS011;60444;43.534;-5.674;2023-04-25T05:46:02;11.53;;;5.70;;
72437;SDS011;60444;43.534;-5.674;2023-04-25T05:48:27;11.05;;;5.10;;
72437;SDS011;60444;43.534;-5.674;2023-04-25T05:50:53;12.03;;;4.50;;
72437;SDS011;60444;43.534;-5.674;2023-04-25T05:53:19;10.93;;;4.40;;
72437;SDS011;60444;43.534;-5.674;2023-04-25T05:55:45;9.52;;;3.90;;
72437;SDS011;60444;43.534;-5.674;2023-04-25T05:58:11;9.77;;;4.50;;
72437;SDS011;60444;43.534;-5.674;2023-04-25T06:00:36;10.27;;;4.50;;
72437;SDS011;60444;43.534;-5.674;2023-04-25T06:03:03;10.25;;;4.20;;
72437;SDS011;60444;43.534;-5.674;2023-04-25T06:05:28;8.43;;;3.63;;
72437;SDS011;60444;43.534;-5.674;2023-04-25T06:07:54;10.73;;;5.90;;
72437;SDS011;60444;43.534;-5.674;2023-04-25T06:10:20;11.63;;;6.30;;
72437;SDS011;60444;43.534;-5.674;2023-04-25T06:12:45;16.70;;;7.35;;
72437;SDS011;60444;43.534;-5.674;2023-04-25T06:15:11;14.47;;;7.47;;
72437;SDS011;60444;43.534;-5.674;2023-04-25T06:17:36;14.80;;;7.17;;
72437;SDS011;60444;43.534;-5.674;2023-04-25T06:20:02;12.93;;;6.75;;
72437;SDS011;60444;43.534;-5.674;2023-04-25T06:22:29;11.53;;;5.93;;
72437;SDS011;60444;43.534;-5.674;2023-04-25T06:24:54;12.15;;;5.20;;
72437;SDS011;60444;43.534;-5.674;2023-04-25T06:27:22;11.40;;;5.32;;
72437;SDS011;60444;43.534;-5.674;2023-04-25T06:29:47;13.53;;;6.70;;
72437;SDS011;60444;43.534;-5.674;2023-04-25T06:32:13;11.80;;;6.07;;
72437;SDS011;60444;43.534;-5.674;2023-04-25T06:34:39;11.80;;;5.50;;
72437;SDS011;60444;43.534;-5.674;2023-04-25T06:37:04;11.23;;;4.83;;
72437;SDS011;60444;43.534;-5.674;2023-04-25T06:39:30;10.55;;;4.97;;
72437;SDS011;60444;43.534;-5.674;2023-04-25T06:41:55;10.07;;;5.00;;
72437;SDS011;60444;43.534;-5.674;2023-04-25T06:44:21;11.10;;;5.20;;
72437;SDS011;60444;43.534;-5.674;2023-04-25T06:46:48;14.05;;;6.20;;
72437;SDS011;60444;43.534;-5.674;2023-04-25T06:49:13;13.33;;;6.07;;
72437;SDS011;60444;43.534;-5.674;2023-04-25T06:51:40;13.63;;;6.05;;
72437;SDS011;60444;43.534;-5.674;2023-04-25T06:54:08;10.75;;;4.78;;
72437;SDS011;60444;43.534;-5.674;2023-04-25T06:56:34;11.60;;;4.97;;
72437;SDS011;60444;43.534;-5.674;2023-04-25T06:59:00;10.77;;;5.20;;
72437;SDS011;60444;43.534;-5.674;2023-04-25T07:01:26;10.27;;;5.07;;
72437;SDS011;60444;43.534;-5.674;2023-04-25T07:03:51;9.20;;;4.63;;
72437;SDS011;60444;43.534;-5.674;2023-04-25T07:06:17;15.68;;;7.18;;
72437;SDS011;60444;43.534;-5.674;2023-04-25T07:08:42;17.47;;;8.60;;
72437;SDS011;60444;43.534;-5.674;2023-04-25T07:11:08;10.85;;;5.13;;
72437;SDS011;60444;43.534;-5.674;2023-04-25T07:13:33;11.77;;;5.20;;
72437;SDS011;60444;43.534;-5.674;2023-04-25T07:15:59;12.67;;;7.20;;
72437;SDS011;60444;43.534;-5.674;2023-04-25T07:18:25;18.23;;;8.95;;
72437;SDS011;60444;43.534;-5.674;2023-04-25T07:20:50;19.73;;;8.40;;
72437;SDS011;60444;43.534;-5.674;2023-04-25T07:23:16;17.00;;;9.20;;
72437;SDS011;60444;43.534;-5.674;2023-04-25T07:25:41;19.80;;;9.18;;
72437;SDS011;60444;43.534;-5.674;2023-04-25T07:28:07;18.93;;;9.00;;
72437;SDS011;60444;43.534;-5.674;2023-04-25T07:30:32;17.27;;;7.77;;
72437;SDS011;60444;43.534;-5.674;2023-04-25T07:32:59;20.27;;;8.90;;
72437;SDS011;60444;43.534;-5.674;2023-04-25T07:35:25;21.80;;;10.20;;
72437;SDS011;60444;43.534;-5.674;2023-04-25T07:37:50;19.07;;;9.70;;
72437;SDS011;60444;43.534;-5.674;2023-04-25T07:40:16;18.90;;;9.80;;
72437;SDS011;60444;43.534;-5.674;2023-04-25T07:42:42;17.73;;;8.88;;
72437;SDS011;60444;43.534;-5.674;2023-04-25T07:45:08;19.30;;;9.27;;
72437;SDS011;60444;43.534;-5.674;2023-04-25T07:47:34;17.65;;;8.77;;
72437;SDS011;60444;43.534;-5.674;2023-04-25T07:50:00;20.48;;;8.82;;
72437;SDS011;60444;43.534;-5.674;2023-04-25T07:52:26;17.05;;;9.10;;
72437;SDS011;60444;43.534;-5.674;2023-04-25T07:54:51;16.30;;;7.13;;
72437;SDS011;60444;43.534;-5.674;2023-04-25T07:57:17;17.97;;;8.40;;
72437;SDS011;60444;43.534;-5.674;2023-04-25T07:59:44;12.75;;;6.03;;
72437;SDS011;60444;43.534;-5.674;2023-04-25T08:02:10;16.10;;;6.85;;
72437;SDS011;60444;43.534;-5.674;2023-04-25T08:04:35;15.33;;;6.10;;
72437;SDS011;60444;43.534;-5.674;2023-04-25T08:07:01;16.10;;;6.33;;
72437;SDS011;60444;43.534;-5.674;2023-04-25T08:09:26;15.20;;;6.30;;
72437;SDS011;60444;43.534;-5.674;2023-04-25T08:11:52;13.40;;;6.47;;
72437;SDS011;60444;43.534;-5.674;2023-04-25T08:14:17;17.77;;;6.03;;
72437;SDS011;60444;43.534;-5.674;2023-04-25T08:16:43;20.05;;;6.32;;
72437;SDS011;60444;43.534;-5.674;2023-04-25T08:19:09;12.47;;;5.70;;
72437;SDS011;60444;43.534;-5.674;2023-04-25T08:21:35;13.32;;;5.00;;
72437;SDS011;60444;43.534;-5.674;2023-04-25T08:24:01;12.37;;;5.07;;
72437;SDS011;60444;43.534;-5.674;2023-04-25T08:26:27;14.50;;;5.03;;
72437;SDS011;60444;43.534;-5.674;2023-04-25T08:28:54;10.33;;;4.80;;
72437;SDS011;60444;43.534;-5.674;2023-04-25T08:31:19;12.02;;;5.20;;
72437;SDS011;60444;43.534;-5.674;2023-04-25T08:33:45;11.88;;;5.60;;
72437;SDS011;60444;43.534;-5.674;2023-04-25T08:36:11;11.53;;;4.60;;
72437;SDS011;60444;43.534;-5.674;2023-04-25T08:38:37;13.68;;;4.88;;
72437;SDS011;60444;43.534;-5.674;2023-04-25T08:41:02;13.63;;;4.73;;
72437;SDS011;60444;43.534;-5.674;2023-04-25T08:43:29;16.05;;;5.13;;
72437;SDS011;60444;43.534;-5.674;2023-04-25T08:45:57;13.15;;;4.43;;
72437;SDS011;60444;43.534;-5.674;2023-04-25T08:48:25;14.30;;;4.60;;
72437;SDS011;60444;43.534;-5.674;2023-04-25T08:50:53;11.57;;;4.07;;
72437;SDS011;60444;43.534;-5.674;2023-04-25T08:53:30;9.73;;;3.83;;
72437;SDS011;60444;43.534;-5.674;2023-04-25T08:55:58;15.23;;;4.50;;
72437;SDS011;60444;43.534;-5.674;2023-04-25T08:58:27;12.45;;;4.55;;
72437;SDS011;60444;43.534;-5.674;2023-04-25T09:00:53;12.77;;;4.10;;
72437;SDS011;60444;43.534;-5.674;2023-04-25T09:03:19;11.43;;;4.18;;
72437;SDS011;60444;43.534;-5.674;2023-04-25T09:05:44;11.07;;;3.80;;
72437;SDS011;60444;43.534;-5.674;2023-04-25T09:08:10;10.27;;;3.80;;
72437;SDS011;60444;43.534;-5.674;2023-04-25T09:10:36;13.27;;;3.80;;
72437;SDS011;60444;43.534;-5.674;2023-04-25T09:16:09;12.68;;;3.55;;
72437;SDS011;60444;43.534;-5.674;2023-04-25T09:18:30;8.77;;;3.00;;
72437;SDS011;60444;43.534;-5.674;2023-04-25T09:21:10;11.23;;;3.83;;
72437;SDS011;60444;43.534;-5.674;2023-04-25T09:23:49;10.03;;;3.73;;
72437;SDS011;60444;43.534;-5.674;2023-04-25T09:26:17;11.55;;;3.15;;
72437;SDS011;60444;43.534;-5.674;2023-04-25T09:28:44;11.80;;;3.30;;
72437;SDS011;60444;43.534;-5.674;2023-04-25T09:31:21;9.98;;;3.03;;
72437;SDS011;60444;43.534;-5.674;2023-04-25T09:33:49;8.05;;;3.30;;
72437;SDS011;60444;43.534;-5.674;2023-04-25T09:36:14;9.47;;;2.83;;
72437;SDS011;60444;43.534;-5.674;2023-04-25T09:38:41;11.32;;;3.30;;
72437;SDS011;60444;43.534;-5.674;2023-04-25T09:41:11;9.77;;;3.00;;
72437;SDS011;60444;43.534;-5.674;2023-04-25T09:43:38;10.55;;;3.20;;
72437;SDS011;60444;43.534;-5.674;2023-04-25T09:46:08;9.25;;;2.90;;
72437;SDS011;60444;43.534;-5.674;2023-04-25T09:48:36;9.48;;;2.75;;
72437;SDS011;60444;43.534;-5.674;2023-04-25T09:51:11;11.70;;;3.63;;
72437;SDS011;60444;43.534;-5.674;2023-04-25T09:53:44;7.68;;;2.33;;
72437;SDS011;60444;43.534;-5.674;2023-04-25T09:56:15;9.75;;;3.30;;
72437;SDS011;60444;43.534;-5.674;2023-04-25T09:58:41;9.60;;;2.93;;
72437;SDS011;60444;43.534;-5.674;2023-04-25T10:01:07;10.35;;;2.45;;
72437;SDS011;60444;43.534;-5.674;2023-04-25T10:03:37;9.35;;;3.00;;
72437;SDS011;60444;43.534;-5.674;2023-04-25T10:06:08;11.95;;;3.75;;
72437;SDS011;60444;43.534;-5.674;2023-04-25T10:08:38;10.53;;;2.90;;
72437;SDS011;60444;43.534;-5.674;2023-04-25T10:11:04;8.15;;;2.70;;
72437;SDS011;60444;43.534;-5.674;2023-04-25T10:13:32;9.80;;;3.05;;
72437;SDS011;60444;43.534;-5.674;2023-04-25T10:15:59;7.30;;;3.40;;
72437;SDS011;60444;43.534;-5.674;2023-04-25T10:18:27;9.57;;;3.20;;
72437;SDS011;60444;43.534;-5.674;2023-04-25T10:20:54;11.93;;;3.83;;
72437;SDS011;60444;43.534;-5.674;2023-04-25T10:23:22;12.30;;;3.30;;
72437;SDS011;60444;43.534;-5.674;2023-04-25T10:25:52;12.98;;;3.75;;
72437;SDS011;60444;43.534;-5.674;2023-04-25T10:28:19;8.43;;;2.63;;
72437;SDS011;60444;43.534;-5.674;2023-04-25T10:31:01;8.43;;;2.60;;
72437;SDS011;60444;43.534;-5.674;2023-04-25T10:36:08;10.75;;;2.83;;
72437;SDS011;60444;43.534;-5.674;2023-04-25T10:38:35;9.63;;;3.25;;
72437;SDS011;60444;43.534;-5.674;2023-04-25T10:41:08;8.40;;;2.97;;
72437;SDS011;60444;43.534;-5.674;2023-04-25T10:46:17;8.07;;;3.37;;
72437;SDS011;60444;43.534;-5.674;2023-04-25T10:48:50;8.57;;;2.50;;
72437;SDS011;60444;43.534;-5.674;2023-04-25T10:51:24;9.38;;;2.97;;
72437;SDS011;60444;43.534;-5.674;2023-04-25T10:56:20;11.32;;;3.40;;
72437;SDS011;60444;43.534;-5.674;2023-04-25T10:58:47;9.30;;;3.40;;
72437;SDS011;60444;43.534;-5.674;2023-04-25T11:01:13;10.43;;;2.90;;
72437;SDS011;60444;43.534;-5.674;2023-04-25T11:03:41;9.02;;;2.85;;
72437;SDS011;60444;43.534;-5.674;2023-04-25T11:06:12;7.47;;;2.75;;
72437;SDS011;60444;43.534;-5.674;2023-04-25T11:09:09;11.63;;;3.03;;
72437;SDS011;60444;43.534;-5.674;2023-04-25T11:11:38;8.57;;;2.60;;
72437;SDS011;60444;43.534;-5.674;2023-04-25T11:14:06;8.70;;;2.90;;
72437;SDS011;60444;43.534;-5.674;2023-04-25T11:16:32;8.50;;;2.63;;
72437;SDS011;60444;43.534;-5.674;2023-04-25T11:18:58;10.27;;;3.00;;
72437;SDS011;60444;43.534;-5.674;2023-04-25T11:21:26;8.40;;;2.58;;
72437;SDS011;60444;43.534;-5.674;2023-04-25T11:23:53;8.25;;;2.80;;
72437;SDS011;60444;43.534;-5.674;2023-04-25T11:26:19;9.93;;;3.07;;
72437;SDS011;60444;43.534;-5.674;2023-04-25T11:28:45;7.03;;;2.30;;
72437;SDS011;60444;43.534;-5.674;2023-04-25T11:31:12;9.55;;;2.58;;
72437;SDS011;60444;43.534;-5.674;2023-04-25T11:33:37;9.55;;;2.40;;
72437;SDS011;60444;43.534;-5.674;2023-04-25T11:36:03;10.63;;;2.77;;
72437;SDS011;60444;43.534;-5.674;2023-04-25T11:38:29;10.85;;;2.78;;
72437;SDS011;60444;43.534;-5.674;2023-04-25T11:40:54;10.93;;;2.80;;
72437;SDS011;60444;43.534;-5.674;2023-04-25T11:43:21;8.77;;;2.70;;
72437;SDS011;60444;43.534;-5.674;2023-04-25T11:45:48;9.67;;;3.37;;
72437;SDS011;60444;43.534;-5.674;2023-04-25T11:48:14;8.32;;;2.65;;
72437;SDS011;60444;43.534;-5.674;2023-04-25T11:50:40;8.88;;;2.70;;
72437;SDS011;60444;43.534;-5.674;2023-04-25T11:53:05;11.67;;;2.90;;
72437;SDS011;60444;43.534;-5.674;2023-04-25T11:55:31;8.73;;;2.40;;
72437;SDS011;60444;43.534;-5.674;2023-04-25T11:57:59;8.75;;;2.50;;
72437;SDS011;60444;43.534;-5.674;2023-04-25T12:00:25;8.68;;;2.58;;
72437;SDS011;60444;43.534;-5.674;2023-04-25T12:02:55;7.40;;;2.30;;
72437;SDS011;60444;43.534;-5.674;2023-04-25T12:05:27;8.87;;;2.67;;
72437;SDS011;60444;43.534;-5.674;2023-04-25T12:07:58;8.13;;;2.38;;
72437;SDS011;60444;43.534;-5.674;2023-04-25T12:10:37;8.10;;;2.40;;
72437;SDS011;60444;43.534;-5.674;2023-04-25T12:13:24;8.77;;;2.53;;
72437;SDS011;60444;43.534;-5.674;2023-04-25T12:15:51;9.65;;;2.40;;
72437;SDS011;60444;43.534;-5.674;2023-04-25T12:18:19;6.87;;;1.97;;
72437;SDS011;60444;43.534;-5.674;2023-04-25T12:20:46;6.05;;;2.13;;
72437;SDS011;60444;43.534;-5.674;2023-04-25T12:23:12;7.22;;;2.60;;
72437;SDS011;60444;43.534;-5.674;2023-04-25T12:25:38;7.83;;;2.27;;
72437;SDS011;60444;43.534;-5.674;2023-04-25T12:28:14;9.18;;;2.45;;
72437;SDS011;60444;43.534;-5.674;2023-04-25T12:31:18;7.90;;;2.08;;
72437;SDS011;60444;43.534;-5.674;2023-04-25T12:33:36;8.02;;;2.60;;
72437;SDS011;60444;43.534;-5.674;2023-04-25T12:36:03;9.03;;;2.30;;
72437;SDS011;60444;43.534;-5.674;2023-04-25T12:38:39;9.90;;;2.92;;
72437;SDS011;60444;43.534;-5.674;2023-04-25T12:41:06;6.55;;;2.15;;
72437;SDS011;60444;43.534;-5.674;2023-04-25T12:43:33;9.48;;;2.72;;
72437;SDS011;60444;43.534;-5.674;2023-04-25T12:45:58;12.13;;;3.73;;
72437;SDS011;60444;43.534;-5.674;2023-04-25T12:48:24;8.85;;;3.22;;
72437;SDS011;60444;43.534;-5.674;2023-04-25T12:50:50;12.73;;;2.80;;
72437;SDS011;60444;43.534;-5.674;2023-04-25T12:53:20;9.00;;;2.50;;
72437;SDS011;60444;43.534;-5.674;2023-04-25T12:55:47;9.02;;;2.40;;
72437;SDS011;60444;43.534;-5.674;2023-04-25T12:58:17;10.37;;;2.83;;
72437;SDS011;60444;43.534;-5.674;2023-04-25T13:00:44;9.68;;;2.60;;
72437;SDS011;60444;43.534;-5.674;2023-04-25T13:03:10;8.05;;;2.50;;
72437;SDS011;60444;43.534;-5.674;2023-04-25T13:05:37;8.95;;;2.42;;
72437;SDS011;60444;43.534;-5.674;2023-04-25T13:08:03;8.00;;;2.67;;
72437;SDS011;60444;43.534;-5.674;2023-04-25T13:10:29;8.90;;;2.53;;
72437;SDS011;60444;43.534;-5.674;2023-04-25T13:12:54;9.40;;;2.47;;
72437;SDS011;60444;43.534;-5.674;2023-04-25T13:15:20;7.57;;;2.50;;
72437;SDS011;60444;43.534;-5.674;2023-04-25T13:17:46;7.90;;;2.40;;
72437;SDS011;60444;43.534;-5.674;2023-04-25T13:20:12;6.93;;;2.27;;
72437;SDS011;60444;43.534;-5.674;2023-04-25T13:22:39;8.18;;;2.53;;
72437;SDS011;60444;43.534;-5.674;2023-04-25T13:25:05;6.90;;;2.83;;
72437;SDS011;60444;43.534;-5.674;2023-04-25T13:27:32;7.03;;;2.50;;
72437;SDS011;60444;43.534;-5.674;2023-04-25T13:29:59;10.13;;;3.17;;
72437;SDS011;60444;43.534;-5.674;2023-04-25T13:32:26;7.78;;;3.03;;
72437;SDS011;60444;43.534;-5.674;2023-04-25T13:34:52;8.07;;;2.38;;
72437;SDS011;60444;43.534;-5.674;2023-04-25T13:37:18;8.82;;;2.70;;
72437;SDS011;60444;43.534;-5.674;2023-04-25T13:39:44;7.40;;;2.20;;
72437;SDS011;60444;43.534;-5.674;2023-04-25T13:42:09;7.67;;;2.20;;
72437;SDS011;60444;43.534;-5.674;2023-04-25T13:44:36;6.72;;;2.40;;
72437;SDS011;60444;43.534;-5.674;2023-04-25T13:47:01;9.30;;;3.22;;
72437;SDS011;60444;43.534;-5.674;2023-04-25T13:49:27;5.30;;;2.13;;
72437;SDS011;60444;43.534;-5.674;2023-04-25T13:51:52;7.53;;;2.07;;
72437;SDS011;60444;43.534;-5.674;2023-04-25T13:54:17;9.70;;;2.37;;
72437;SDS011;60444;43.534;-5.674;2023-04-25T13:56:43;5.70;;;2.50;;
72437;SDS011;60444;43.534;-5.674;2023-04-25T13:59:09;8.57;;;2.10;;
72437;SDS011;60444;43.534;-5.674;2023-04-25T14:01:34;7.10;;;2.20;;
72437;SDS011;60444;43.534;-5.674;2023-04-25T14:04:01;6.60;;;2.17;;
72437;SDS011;60444;43.534;-5.674;2023-04-25T14:06:28;7.50;;;2.25;;
72437;SDS011;60444;43.534;-5.674;2023-04-25T14:08:54;6.20;;;1.90;;
72437;SDS011;60444;43.534;-5.674;2023-04-25T14:11:19;7.03;;;2.40;;
72437;SDS011;60444;43.534;-5.674;2023-04-25T14:13:45;8.17;;;2.57;;
72437;SDS011;60444;43.534;-5.674;2023-04-25T14:16:11;7.10;;;2.58;;
72437;SDS011;60444;43.534;-5.674;2023-04-25T14:18:36;7.77;;;2.20;;
72437;SDS011;60444;43.534;-5.674;2023-04-25T14:21:02;5.87;;;2.40;;
72437;SDS011;60444;43.534;-5.674;2023-04-25T14:23:27;7.00;;;2.30;;
72437;SDS011;60444;43.534;-5.674;2023-04-25T14:25:53;8.80;;;1.90;;
72437;SDS011;60444;43.534;-5.674;2023-04-25T14:28:19;8.15;;;2.53;;
72437;SDS011;60444;43.534;-5.674;2023-04-25T14:30:44;5.53;;;1.87;;
72437;SDS011;60444;43.534;-5.674;2023-04-25T14:33:10;6.22;;;2.28;;
72437;SDS011;60444;43.534;-5.674;2023-04-25T14:35:36;7.10;;;2.20;;